sensor_id;sensor_type;location;lat;lon;timestamp;pressure;altitude;pressure_sealevel;temperature;humidity
71903;BME280;59778;50.310;18.780;2022-07-15T00:01:50;98577.06;;;17.89;94.34
71903;BME280;59778;50.310;18.780;2022-07-15T00:17:11;98573.41;;;18.00;94.75
71903;BME280;59778;50.310;18.780;2022-07-15T00:32:32;98569.91;;;17.88;96.06
71903;BME280;59778;50.310;18.780;2022-07-15T00:47:55;98577.06;;;17.89;95.58
71903;BME280;59778;50.310;18.780;2022-07-15T01:03:18;98586.56;;;17.70;96.50
71903;BME280;59778;50.310;18.780;2022-07-15T01:18:39;98581.00;;;17.65;95.51
71903;BME280;59778;50.310;18.780;2022-07-15T01:34:00;98572.16;;;17.51;95.97
71903;BME280;59778;50.310;18.780;2022-07-15T01:49:21;98574.72;;;17.41;94.87
71903;BME280;59778;50.310;18.780;2022-07-15T02:04:42;98595.31;;;17.04;94.09
71903;BME280;59778;50.310;18.780;2022-07-15T02:20:04;98593.81;;;16.84;93.63
71903;BME280;59778;50.310;18.780;2022-07-15T02:35:25;98628.63;;;16.61;93.40
71903;BME280;59778;50.310;18.780;2022-07-15T02:50:47;98652.50;;;16.30;94.00
71903;BME280;59778;50.310;18.780;2022-07-15T03:06:09;98672.53;;;16.01;94.84
71903;BME280;59778;50.310;18.780;2022-07-15T03:21:30;98718.47;;;15.69;94.04
71903;BME280;59778;50.310;18.780;2022-07-15T03:36:52;98744.19;;;15.25;92.57
71903;BME280;59778;50.310;18.780;2022-07-15T03:52:13;98759.44;;;14.90;91.77
71903;BME280;59778;50.310;18.780;2022-07-15T04:07:35;98785.84;;;14.78;89.42
71903;BME280;59778;50.310;18.780;2022-07-15T04:22:56;98775.19;;;14.94;88.21
71903;BME280;59778;50.310;18.780;2022-07-15T04:38:17;98802.66;;;15.31;87.85
71903;BME280;59778;50.310;18.780;2022-07-15T04:53:38;98849.19;;;15.31;85.69
71903;BME280;59778;50.310;18.780;2022-07-15T05:08:59;98868.41;;;15.24;84.63
71903;BME280;59778;50.310;18.780;2022-07-15T05:24:20;98876.50;;;15.62;82.43
71903;BME280;59778;50.310;18.780;2022-07-15T05:39:41;98902.88;;;15.56;80.14
71903;BME280;59778;50.310;18.780;2022-07-15T05:55:14;98922.38;;;15.91;78.39
71903;BME280;59778;50.310;18.780;2022-07-15T06:10:35;98934.03;;;16.05;76.93
71903;BME280;59778;50.310;18.780;2022-07-15T06:25:57;98955.59;;;16.56;74.05
71903;BME280;59778;50.310;18.780;2022-07-15T06:41:18;98973.44;;;16.47;73.18
71903;BME280;59778;50.310;18.780;2022-07-15T06:56:40;98991.22;;;16.63;66.05
71903;BME280;59778;50.310;18.780;2022-07-15T07:12:01;99009.03;;;16.90;63.19
71903;BME280;59778;50.310;18.780;2022-07-15T07:27:22;99011.09;;;17.54;60.05
71903;BME280;59778;50.310;18.780;2022-07-15T07:42:44;99029.97;;;17.80;59.06
71903;BME280;59778;50.310;18.780;2022-07-15T07:58:05;99041.53;;;17.82;58.62
71903;BME280;59778;50.310;18.780;2022-07-15T08:13:27;99039.63;;;18.71;57.81
71903;BME280;59778;50.310;18.780;2022-07-15T08:28:50;99050.34;;;18.49;59.40
71903;BME280;59778;50.310;18.780;2022-07-15T08:44:12;99061.38;;;18.61;52.44
71903;BME280;59778;50.310;18.780;2022-07-15T08:59:33;99058.50;;;18.91;53.09
71903;BME280;59778;50.310;18.780;2022-07-15T09:14:54;99071.13;;;19.15;49.96
71903;BME280;59778;50.310;18.780;2022-07-15T09:46:00;99066.31;;;20.07;48.30
71903;BME280;59778;50.310;18.780;2022-07-15T10:01:25;99062.47;;;19.74;47.72
71903;BME280;59778;50.310;18.780;2022-07-15T10:32:10;99061.66;;;20.07;44.88
71903;BME280;59778;50.310;18.780;2022-07-15T10:47:32;99060.00;;;20.23;43.73
71903;BME280;59778;50.310;18.780;2022-07-15T11:03:20;99067.81;;;19.53;46.82
71903;BME280;59778;50.310;18.780;2022-07-15T11:18:55;99054.47;;;20.23;42.54
71903;BME280;59778;50.310;18.780;2022-07-15T11:34:18;99058.66;;;20.59;40.94
71903;BME280;59778;50.310;18.780;2022-07-15T11:49:42;99047.44;;;20.15;41.75
71903;BME280;59778;50.310;18.780;2022-07-15T12:05:06;99048.13;;;20.94;42.41
71903;BME280;59778;50.310;18.780;2022-07-15T12:20:27;99031.81;;;21.85;36.29
71903;BME280;59778;50.310;18.780;2022-07-15T12:35:49;99034.72;;;21.68;37.77
71903;BME280;59778;50.310;18.780;2022-07-15T12:51:10;99045.63;;;23.22;36.09
71903;BME280;59778;50.310;18.780;2022-07-15T13:06:31;99032.91;;;23.36;34.09
71903;BME280;59778;50.310;18.780;2022-07-15T13:21:52;99027.47;;;23.57;34.43
71903;BME280;59778;50.310;18.780;2022-07-15T13:52:41;99031.09;;;23.67;32.01
71903;BME280;59778;50.310;18.780;2022-07-15T14:08:03;99016.22;;;24.19;32.64
71903;BME280;59778;50.310;18.780;2022-07-15T14:23:24;99018.69;;;24.05;31.07
71903;BME280;59778;50.310;18.780;2022-07-15T14:38:45;99013.44;;;24.39;31.31
71903;BME280;59778;50.310;18.780;2022-07-15T14:54:06;99015.91;;;24.46;29.85
71903;BME280;59778;50.310;18.780;2022-07-15T15:09:27;99024.50;;;24.69;29.75
71903;BME280;59778;50.310;18.780;2022-07-15T15:24:48;99028.72;;;24.16;29.38
71903;BME280;59778;50.310;18.780;2022-07-15T15:40:09;99035.66;;;24.24;31.34
71903;BME280;59778;50.310;18.780;2022-07-15T15:55:31;99033.16;;;24.17;30.92
71903;BME280;59778;50.310;18.780;2022-07-15T16:10:52;99035.28;;;21.97;33.49
71903;BME280;59778;50.310;18.780;2022-07-15T16:26:13;99031.03;;;21.14;34.74
71903;BME280;59778;50.310;18.780;2022-07-15T16:41:34;99035.22;;;21.17;35.43
71903;BME280;59778;50.310;18.780;2022-07-15T16:56:56;99038.78;;;20.57;36.51
71903;BME280;59778;50.310;18.780;2022-07-15T17:12:17;99046.03;;;19.96;36.73
71903;BME280;59778;50.310;18.780;2022-07-15T17:27:38;99047.34;;;19.77;37.09
71903;BME280;59778;50.310;18.780;2022-07-15T17:43:00;99051.63;;;19.56;37.74
71903;BME280;59778;50.310;18.780;2022-07-15T17:58:21;99053.97;;;19.24;38.98
71903;BME280;59778;50.310;18.780;2022-07-15T18:13:42;99062.03;;;19.14;39.75
71903;BME280;59778;50.310;18.780;2022-07-15T18:29:04;99071.25;;;19.08;41.84
71903;BME280;59778;50.310;18.780;2022-07-15T18:44:26;99072.28;;;18.67;42.87
71903;BME280;59778;50.310;18.780;2022-07-15T18:59:47;99098.06;;;18.31;50.15
71903;BME280;59778;50.310;18.780;2022-07-15T19:15:08;99109.09;;;17.42;55.09
71903;BME280;59778;50.310;18.780;2022-07-15T19:30:29;99125.03;;;16.79;54.49
71903;BME280;59778;50.310;18.780;2022-07-15T19:45:50;99133.22;;;16.29;59.85
71903;BME280;59778;50.310;18.780;2022-07-15T20:01:12;99126.06;;;15.72;62.46
71903;BME280;59778;50.310;18.780;2022-07-15T20:16:33;99142.41;;;15.34;65.01
71903;BME280;59778;50.310;18.780;2022-07-15T20:31:54;99138.75;;;14.96;65.42
71903;BME280;59778;50.310;18.780;2022-07-15T20:47:16;99145.31;;;14.75;67.67
71903;BME280;59778;50.310;18.780;2022-07-15T21:02:37;99153.09;;;14.52;69.47
71903;BME280;59778;50.310;18.780;2022-07-15T21:17:58;99159.66;;;14.38;69.83
71903;BME280;59778;50.310;18.780;2022-07-15T21:33:22;99166.09;;;14.17;70.92
71903;BME280;59778;50.310;18.780;2022-07-15T21:48:44;99165.59;;;13.81;72.91
71903;BME280;59778;50.310;18.780;2022-07-15T22:04:05;99176.13;;;13.84;73.67
71903;BME280;59778;50.310;18.780;2022-07-15T22:19:26;99182.16;;;13.66;73.19
71903;BME280;59778;50.310;18.780;2022-07-15T22:34:47;99176.63;;;13.46;73.60
71903;BME280;59778;50.310;18.780;2022-07-15T22:50:09;99174.69;;;12.99;75.81
71903;BME280;59778;50.310;18.780;2022-07-15T23:05:30;99165.16;;;12.89;76.06
71903;BME280;59778;50.310;18.780;2022-07-15T23:20:51;99157.66;;;12.91;75.24
71903;BME280;59778;50.310;18.780;2022-07-15T23:36:13;99156.41;;;12.65;76.44
71903;BME280;59778;50.310;18.780;2022-07-15T23:51:34;99151.38;;;12.35;76.82
